GFO weather

Bartica A Airport
Bartica, Cuyuni-Mazaruni, Guyana

Public forecast

Using degrees Celsius for public forecast. Weather courtesy of forecast.io.

Closest aviation weather report (METAR) to Bartica A Airport

Closest report is Cheddi Jagan International Airport, 25.4 nm (47.0 km) ENE. Retrieved 2019/11/13 13:00 UTC (44 minutes ago):

SYCJ 131300Z 10006KT 020V130 9999 BKN020 30/26 Q1011 NOSIG

Closest aviation forecast (TAF) to Bartica A Airport

Closest forecast is Cheddi Jagan International Airport, 25.4 nm (47.0 km) ENE. Retrieved 2019/11/13 12:48 UTC (56 minutes ago):

TAF SYCJ 131037Z 1312/1412 07010KT 9999 BKN018 SCT090 TEMPO 1316/1321 VRB10KT 5000 TS FEW016CB BECMG 1322/1400 VRB04KT 9999 SCT016 SCT080